Time;durP1;ratioP1;P1;durP2;ratioP2;P2;SDS_P1;SDS_P2;PMS_P1;PMS_P2;Temp;Humidity;BMP_temperature;BMP_pressure;BME280_temperature;BME280_humidity;BME280_pressure;Samples;Min_cycle;Max_cycle;Signal;HPM_P1;HPM_P2
2023/09/12 00:02:19;;;;;;;15.27;8.82;;;;;;;;;;5104232;28;20410;-61
2023/09/12 00:04:45;;;;;;;15.73;8.98;;;;;;;;;;5104676;28;20491;-61
2023/09/12 00:07:11;;;;;;;21.63;9.35;;;;;;;;;;5104582;28;20028;-59
2023/09/12 00:09:37;;;;;;;15.55;9.02;;;;;;;;;;5100500;28;20035;-60
2023/09/12 00:12:05;;;;;;;16.83;9.40;;;;;;;;;;5100819;28;20058;-60
2023/09/12 00:14:31;;;;;;;19.45;8.85;;;;;;;;;;5102451;28;20050;-60
2023/09/12 00:16:57;;;;;;;15.82;9.48;;;;;;;;;;5083253;28;20038;-60
2023/09/12 00:19:23;;;;;;;15.82;8.57;;;;;;;;;;5099373;28;20051;-59
2023/09/12 00:21:49;;;;;;;17.83;9.30;;;;;;;;;;5086578;28;20038;-59
2023/09/12 00:24:16;;;;;;;17.23;10.02;;;;;;;;;;5102697;28;20058;-60
2023/09/12 00:26:42;;;;;;;12.35;8.90;;;;;;;;;;5106217;28;20028;-60
2023/09/12 00:29:08;;;;;;;20.35;9.80;;;;;;;;;;5101293;28;20040;-60
2023/09/12 00:31:34;;;;;;;19.25;9.13;;;;;;;;;;5084267;28;20036;-60
2023/09/12 00:34:00;;;;;;;17.13;8.63;;;;;;;;;;5103109;28;20042;-60
2023/09/12 00:36:26;;;;;;;15.45;9.13;;;;;;;;;;5103278;28;20038;-59
2023/09/12 00:38:52;;;;;;;17.92;9.10;;;;;;;;;;5101586;28;20474;-60
2023/09/12 00:41:18;;;;;;;23.23;9.30;;;;;;;;;;5099415;28;20050;-60
2023/09/12 00:43:44;;;;;;;20.95;9.98;;;;;;;;;;5080789;28;20044;-60
2023/09/12 00:46:10;;;;;;;20.67;9.15;;;;;;;;;;5099599;28;20394;-60
2023/09/12 00:48:37;;;;;;;18.15;8.50;;;;;;;;;;5098242;28;20046;-60
2023/09/12 00:51:05;;;;;;;19.33;8.90;;;;;;;;;;5101485;28;20039;-60
2023/09/12 00:53:31;;;;;;;14.60;8.27;;;;;;;;;;5102475;28;20032;-60
2023/09/12 00:55:59;;;;;;;13.73;8.75;;;;;;;;;;5084323;28;20048;-60
2023/09/12 00:58:26;;;;;;;15.88;8.98;;;;;;;;;;5084363;28;20043;-60
2023/09/12 01:00:52;;;;;;;17.48;9.30;;;;;;;;;;5097906;28;20063;-60
2023/09/12 01:03:18;;;;;;;15.60;8.77;;;;;;;;;;5082471;28;20032;-60
2023/09/12 01:05:45;;;;;;;19.92;9.88;;;;;;;;;;5104208;28;20430;-59
2023/09/12 01:08:12;;;;;;;17.50;9.48;;;;;;;;;;5083173;28;20040;-59
2023/09/12 01:10:38;;;;;;;19.27;9.38;;;;;;;;;;5064208;28;20047;-59
2023/09/12 01:13:05;;;;;;;19.15;9.23;;;;;;;;;;5099415;28;20059;-59
2023/09/12 01:15:31;;;;;;;16.20;8.80;;;;;;;;;;5083098;28;20039;-59
2023/09/12 01:17:57;;;;;;;16.23;8.70;;;;;;;;;;5086308;28;20039;-60
2023/09/12 01:20:35;;;;;;;18.65;9.95;;;;;;;;;;5084986;28;20039;-59
2023/09/12 01:23:26;;;;;;;16.40;9.30;;;;;;;;;;5083080;28;20035;-60
2023/09/12 01:25:55;;;;;;;18.33;8.93;;;;;;;;;;5105483;28;20051;-60
2023/09/12 01:28:25;;;;;;;21.33;8.60;;;;;;;;;;5085513;28;20059;-60
2023/09/12 01:30:52;;;;;;;17.98;8.57;;;;;;;;;;5084689;28;20529;-59
2023/09/12 01:33:20;;;;;;;18.85;9.57;;;;;;;;;;5083967;28;20370;-59
2023/09/12 01:35:46;;;;;;;15.98;8.88;;;;;;;;;;5084202;28;20396;-60
2023/09/12 01:38:13;;;;;;;24.40;9.13;;;;;;;;;;5083945;28;20028;-59
2023/09/12 01:40:46;;;;;;;16.48;9.60;;;;;;;;;;5098558;28;20036;-59
2023/09/12 01:43:16;;;;;;;16.00;9.02;;;;;;;;;;5081801;28;20035;-58
2023/09/12 01:45:45;;;;;;;14.30;9.48;;;;;;;;;;5085219;28;20036;-59
2023/09/12 01:48:13;;;;;;;17.90;10.10;;;;;;;;;;5088956;28;20035;-60
2023/09/12 01:50:39;;;;;;;13.70;8.27;;;;;;;;;;5089402;28;20054;-59
2023/09/12 01:53:05;;;;;;;19.08;9.43;;;;;;;;;;5078973;28;20051;-60
2023/09/12 01:55:32;;;;;;;15.60;9.43;;;;;;;;;;5089930;28;20494;-60
2023/09/12 01:57:58;;;;;;;19.00;9.55;;;;;;;;;;5083312;28;20410;-59
2023/09/12 02:00:24;;;;;;;16.23;8.93;;;;;;;;;;5071138;28;20486;-59
2023/09/12 02:02:50;;;;;;;16.05;9.65;;;;;;;;;;5101584;28;20043;-60
2023/09/12 02:05:19;;;;;;;20.40;9.45;;;;;;;;;;5104985;28;20034;-60
2023/09/12 02:07:46;;;;;;;19.98;9.55;;;;;;;;;;5088769;28;20534;-59
2023/09/12 02:10:13;;;;;;;16.45;8.95;;;;;;;;;;5085062;28;20501;-59
2023/09/12 02:12:39;;;;;;;17.95;9.20;;;;;;;;;;5084863;28;20047;-60
2023/09/12 02:15:07;;;;;;;15.80;9.02;;;;;;;;;;5100574;28;20048;-60
2023/09/12 02:17:34;;;;;;;15.40;9.48;;;;;;;;;;5083954;28;20677;-59
2023/09/12 02:20:01;;;;;;;19.38;9.10;;;;;;;;;;5086547;28;20044;-60
2023/09/12 02:22:27;;;;;;;16.98;9.88;;;;;;;;;;5108158;28;20036;-60
2023/09/12 02:24:53;;;;;;;22.95;9.88;;;;;;;;;;5087925;28;20047;-60
2023/09/12 02:27:19;;;;;;;19.45;9.80;;;;;;;;;;5089039;28;20036;-59
2023/09/12 02:29:45;;;;;;;16.15;9.02;;;;;;;;;;5107972;28;20043;-60
2023/09/12 02:32:11;;;;;;;18.30;9.82;;;;;;;;;;5070822;28;20027;-59
2023/09/12 02:34:37;;;;;;;18.25;10.88;;;;;;;;;;5087980;28;20036;-60
2023/09/12 02:37:03;;;;;;;19.33;9.80;;;;;;;;;;5085208;28;20044;-60
2023/09/12 02:39:29;;;;;;;18.73;10.27;;;;;;;;;;5082401;28;20035;-59
2023/09/12 02:41:55;;;;;;;18.65;10.13;;;;;;;;;;5085133;28;20042;-59
2023/09/12 02:44:21;;;;;;;20.77;9.98;;;;;;;;;;5105951;28;20047;-60
2023/09/12 02:46:48;;;;;;;25.50;11.15;;;;;;;;;;5105315;28;20442;-60
2023/09/12 02:49:15;;;;;;;14.63;9.18;;;;;;;;;;5082279;28;20048;-60
2023/09/12 02:51:41;;;;;;;21.83;10.35;;;;;;;;;;5106886;28;20042;-60
2023/09/12 02:54:08;;;;;;;17.25;10.07;;;;;;;;;;5087791;28;20038;-60
2023/09/12 02:56:34;;;;;;;22.15;10.45;;;;;;;;;;5087059;28;20028;-60
2023/09/12 02:59:00;;;;;;;14.73;9.50;;;;;;;;;;5087113;28;20031;-60
2023/09/12 03:01:28;;;;;;;21.20;11.07;;;;;;;;;;5054358;28;20038;-60
2023/09/12 03:03:55;;;;;;;25.85;11.80;;;;;;;;;;5086693;28;20061;-60
2023/09/12 03:06:21;;;;;;;24.77;12.52;;;;;;;;;;5103151;28;20044;-60
2023/09/12 03:08:48;;;;;;;20.33;11.80;;;;;;;;;;5067755;28;20059;-60
2023/09/12 03:11:14;;;;;;;23.13;11.60;;;;;;;;;;5104348;28;20044;-59
2023/09/12 03:13:41;;;;;;;17.50;10.55;;;;;;;;;;5084097;28;20043;-60
2023/09/12 03:16:11;;;;;;;17.98;10.38;;;;;;;;;;5069353;28;20036;-60
2023/09/12 03:18:38;;;;;;;18.63;10.25;;;;;;;;;;5107270;28;20035;-60
2023/09/12 03:21:04;;;;;;;20.20;10.13;;;;;;;;;;5083320;28;20500;-60
2023/09/12 03:23:30;;;;;;;18.10;9.75;;;;;;;;;;5087618;28;20047;-60
2023/09/12 03:26:06;;;;;;;15.82;9.88;;;;;;;;;;5086040;28;20051;-60
2023/09/12 03:28:33;;;;;;;19.88;9.68;;;;;;;;;;5065933;28;20047;-60
2023/09/12 03:31:14;;;;;;;22.50;9.98;;;;;;;;;;5084056;28;20055;-60
2023/09/12 03:33:41;;;;;;;18.95;10.80;;;;;;;;;;5088029;28;20035;-60
2023/09/12 03:36:08;;;;;;;21.48;10.48;;;;;;;;;;5084534;28;20040;-59
2023/09/12 03:38:35;;;;;;;22.05;10.43;;;;;;;;;;5084901;28;20051;-59
2023/09/12 03:41:01;;;;;;;16.00;10.38;;;;;;;;;;5087494;28;20039;-59
2023/09/12 03:43:28;;;;;;;27.70;12.68;;;;;;;;;;5068827;28;20047;-60
2023/09/12 03:45:55;;;;;;;22.75;11.23;;;;;;;;;;5085199;28;20040;-60
2023/09/12 03:48:21;;;;;;;21.05;12.02;;;;;;;;;;5085465;28;20062;-60
2023/09/12 03:50:48;;;;;;;18.35;10.50;;;;;;;;;;5084411;28;20048;-60
2023/09/12 03:53:15;;;;;;;21.30;11.23;;;;;;;;;;5084175;28;20043;-60
2023/09/12 03:55:41;;;;;;;16.60;10.32;;;;;;;;;;5103518;28;20427;-60
2023/09/12 03:58:07;;;;;;;22.30;10.77;;;;;;;;;;5103190;28;20042;-60
2023/09/12 04:00:33;;;;;;;19.17;11.65;;;;;;;;;;5084101;28;20028;-60
2023/09/12 04:02:59;;;;;;;23.65;10.73;;;;;;;;;;5087566;28;20043;-59
2023/09/12 04:05:26;;;;;;;22.25;10.82;;;;;;;;;;5081768;28;20031;-59
2023/09/12 04:07:52;;;;;;;23.85;11.00;;;;;;;;;;5102501;28;20043;-60
2023/09/12 04:10:22;;;;;;;19.05;10.98;;;;;;;;;;5083854;28;20048;-60
2023/09/12 04:12:48;;;;;;;;;;;;;;;;;;5086448;28;20036;-60
2023/09/12 04:15:14;;;;;;;23.67;11.57;;;;;;;;;;5087917;28;19912;-59
2023/09/12 04:17:41;;;;;;;24.48;14.07;;;;;;;;;;5085005;28;20418;-60
2023/09/12 04:20:07;;;;;;;20.73;11.75;;;;;;;;;;5085244;28;20032;-60
2023/09/12 04:22:34;;;;;;;20.98;11.43;;;;;;;;;;5086907;28;20031;-59
2023/09/12 04:25:00;;;;;;;20.63;11.48;;;;;;;;;;5084309;28;20032;-60
2023/09/12 04:27:27;;;;;;;19.77;11.05;;;;;;;;;;5085893;28;20032;-59
2023/09/12 04:29:53;;;;;;;28.40;11.40;;;;;;;;;;5083255;28;20430;-60
2023/09/12 04:32:23;;;;;;;19.05;11.38;;;;;;;;;;5087050;28;20429;-60
2023/09/12 04:34:50;;;;;;;18.85;11.82;;;;;;;;;;5083663;28;20180;-60
2023/09/12 04:37:17;;;;;;;18.85;11.68;;;;;;;;;;5079642;28;20058;-60
2023/09/12 04:39:44;;;;;;;22.10;12.10;;;;;;;;;;5088624;28;20023;-60
2023/09/12 04:42:11;;;;;;;27.38;12.32;;;;;;;;;;5084713;28;20410;-59
2023/09/12 04:44:39;;;;;;;25.25;12.15;;;;;;;;;;5100430;28;20047;-59
2023/09/12 04:47:06;;;;;;;22.20;11.63;;;;;;;;;;5081049;28;20036;-60
2023/09/12 04:49:32;;;;;;;26.13;12.32;;;;;;;;;;5071481;28;20035;-60
2023/09/12 04:51:58;;;;;;;20.48;13.02;;;;;;;;;;5074602;28;20039;-60
2023/09/12 04:54:24;;;;;;;25.05;12.70;;;;;;;;;;5084023;28;20032;-60
2023/09/12 04:56:50;;;;;;;24.40;11.55;;;;;;;;;;5102237;28;20051;-59
2023/09/12 04:59:16;;;;;;;19.23;11.40;;;;;;;;;;5105110;28;20028;-60
2023/09/12 05:01:42;;;;;;;21.27;12.23;;;;;;;;;;5102119;28;20051;-60
2023/09/12 05:04:09;;;;;;;24.30;12.50;;;;;;;;;;5084579;28;20043;-60
2023/09/12 05:06:35;;;;;;;21.65;12.23;;;;;;;;;;5080151;28;20031;-60
2023/09/12 05:09:02;;;;;;;21.83;11.98;;;;;;;;;;5065864;28;20036;-60
2023/09/12 05:11:29;;;;;;;20.52;12.73;;;;;;;;;;5100055;28;20036;-59
2023/09/12 05:13:55;;;;;;;27.92;13.02;;;;;;;;;;5102731;28;20032;-59
2023/09/12 05:16:21;;;;;;;24.70;12.18;;;;;;;;;;5086177;28;20028;-58
2023/09/12 05:18:49;;;;;;;21.23;12.13;;;;;;;;;;5086132;28;20035;-59
2023/09/12 05:21:16;;;;;;;25.65;12.43;;;;;;;;;;5086089;28;20055;-59
2023/09/12 05:23:42;;;;;;;24.33;12.63;;;;;;;;;;5088612;28;20031;-60
2023/09/12 05:26:08;;;;;;;23.02;12.73;;;;;;;;;;5081172;28;20052;-60
2023/09/12 05:28:34;;;;;;;25.17;13.05;;;;;;;;;;5088205;28;20040;-59
2023/09/12 05:31:00;;;;;;;28.05;13.93;;;;;;;;;;5082867;28;20039;-59
2023/09/12 05:33:26;;;;;;;26.23;12.88;;;;;;;;;;5085097;28;20058;-59
2023/09/12 05:35:53;;;;;;;21.05;13.00;;;;;;;;;;5086709;28;20074;-59
2023/09/12 05:38:19;;;;;;;25.38;13.88;;;;;;;;;;5090406;28;20534;-60
2023/09/12 05:40:46;;;;;;;28.00;14.07;;;;;;;;;;5105657;28;20418;-60
2023/09/12 05:43:12;;;;;;;23.45;13.15;;;;;;;;;;5085257;28;20042;-59
2023/09/12 05:45:38;;;;;;;27.52;14.63;;;;;;;;;;5084952;28;20047;-59
2023/09/12 05:48:04;;;;;;;25.67;14.63;;;;;;;;;;5086724;28;20055;-59
2023/09/12 05:50:31;;;;;;;23.90;13.73;;;;;;;;;;5083764;28;20487;-59
2023/09/12 05:52:58;;;;;;;32.92;15.43;;;;;;;;;;5105349;28;20036;-59
2023/09/12 05:55:24;;;;;;;30.17;15.82;;;;;;;;;;5101698;28;20054;-59
2023/09/12 05:57:53;;;;;;;29.85;14.38;;;;;;;;;;5085674;28;20047;-59
2023/09/12 06:00:21;;;;;;;24.80;12.25;;;;;;;;;;5083630;28;20039;-59
2023/09/12 06:02:48;;;;;;;24.77;13.38;;;;;;;;;;5081702;28;20051;-60
2023/09/12 06:05:15;;;;;;;30.85;14.50;;;;;;;;;;5076665;28;20035;-60
2023/09/12 06:07:41;;;;;;;25.92;14.27;;;;;;;;;;5079793;28;20035;-60
2023/09/12 06:10:08;;;;;;;24.70;13.40;;;;;;;;;;5101664;28;20434;-59
2023/09/12 06:12:36;;;;;;;26.17;13.93;;;;;;;;;;5105055;28;20028;-59
2023/09/12 06:15:04;;;;;;;29.00;14.57;;;;;;;;;;5104840;28;20035;-60
2023/09/12 06:17:31;;;;;;;18.10;12.32;;;;;;;;;;5104933;28;20406;-59
2023/09/12 06:19:57;;;;;;;25.70;13.50;;;;;;;;;;5086874;28;20600;-59
2023/09/12 06:22:23;;;;;;;28.98;13.85;;;;;;;;;;5104614;28;20031;-60
2023/09/12 06:24:50;;;;;;;28.00;13.90;;;;;;;;;;5098515;28;20063;-60
2023/09/12 06:27:19;;;;;;;22.42;13.15;;;;;;;;;;5096089;28;20040;-60
2023/09/12 06:29:49;;;;;;;23.90;13.60;;;;;;;;;;5101285;28;20513;-59
2023/09/12 06:32:17;;;;;;;26.08;14.75;;;;;;;;;;5102222;28;20048;-60
2023/09/12 06:34:43;;;;;;;28.42;13.18;;;;;;;;;;5104740;28;20039;-59
2023/09/12 06:37:11;;;;;;;30.13;14.20;;;;;;;;;;5074635;28;20032;-60
2023/09/12 06:39:37;;;;;;;26.38;12.98;;;;;;;;;;5104425;28;20387;-59
2023/09/12 06:42:03;;;;;;;23.77;12.52;;;;;;;;;;5105643;28;20028;-59
2023/09/12 06:44:30;;;;;;;19.38;11.98;;;;;;;;;;5093477;28;20056;-59
2023/09/12 06:46:56;;;;;;;23.40;12.43;;;;;;;;;;5105446;28;20402;-59
2023/09/12 06:49:22;;;;;;;32.95;13.77;;;;;;;;;;5082918;28;20051;-60
2023/09/12 06:51:48;;;;;;;28.27;14.30;;;;;;;;;;5103842;28;20055;-60
2023/09/12 06:54:15;;;;;;;30.58;13.35;;;;;;;;;;5105059;28;20441;-60
2023/09/12 06:56:42;;;;;;;24.85;12.65;;;;;;;;;;5095056;28;20040;-60
2023/09/12 06:59:08;;;;;;;20.40;13.15;;;;;;;;;;5099160;28;20043;-60
2023/09/12 07:01:34;;;;;;;23.90;13.57;;;;;;;;;;5102917;28;20028;-60
2023/09/12 07:04:01;;;;;;;19.98;12.57;;;;;;;;;;5102857;28;20067;-60
2023/09/12 07:06:27;;;;;;;26.27;12.93;;;;;;;;;;5100411;28;20035;-60
2023/09/12 07:08:53;;;;;;;28.55;12.15;;;;;;;;;;5098615;28;20036;-59
2023/09/12 07:11:19;;;;;;;26.98;13.00;;;;;;;;;;5099472;28;20040;-60
2023/09/12 07:13:45;;;;;;;28.27;13.63;;;;;;;;;;5101643;28;20540;-60
2023/09/12 07:16:12;;;;;;;23.58;12.63;;;;;;;;;;5101613;28;20036;-60
2023/09/12 07:18:38;;;;;;;29.70;12.55;;;;;;;;;;5093709;28;20055;-60
2023/09/12 07:21:05;;;;;;;28.08;12.68;;;;;;;;;;5097341;28;20048;-60
2023/09/12 07:23:32;;;;;;;23.10;12.40;;;;;;;;;;5101587;28;20037;-59
2023/09/12 07:25:58;;;;;;;26.13;12.85;;;;;;;;;;5102755;28;20062;-60
2023/09/12 07:28:25;;;;;;;22.45;12.27;;;;;;;;;;5093817;28;20039;-60
2023/09/12 07:30:53;;;;;;;25.75;12.32;;;;;;;;;;5101035;28;20039;-60
2023/09/12 07:33:20;;;;;;;22.10;12.25;;;;;;;;;;5098610;28;20047;-60
2023/09/12 07:35:46;;;;;;;19.90;11.77;;;;;;;;;;5100513;28;20653;-60
2023/09/12 07:38:15;;;;;;;24.80;13.50;;;;;;;;;;5101411;28;20036;-60
2023/09/12 07:40:42;;;;;;;22.67;12.52;;;;;;;;;;5101708;28;20554;-60
2023/09/12 07:43:09;;;;;;;17.88;11.82;;;;;;;;;;5103764;28;20032;-60
2023/09/12 07:45:37;;;;;;;25.30;13.85;;;;;;;;;;5081438;28;20498;-60
2023/09/12 07:48:07;;;;;;;27.58;13.25;;;;;;;;;;5103709;28;20035;-60
2023/09/12 07:50:33;;;;;;;25.73;12.65;;;;;;;;;;5083796;28;20495;-60
2023/09/12 07:53:00;;;;;;;22.55;12.55;;;;;;;;;;5103972;28;20036;-60
2023/09/12 07:55:30;;;;;;;27.10;12.63;;;;;;;;;;5100407;28;20506;-60
2023/09/12 07:57:56;;;;;;;24.83;12.20;;;;;;;;;;5098688;28;20046;-60
2023/09/12 08:00:22;;;;;;;33.42;13.63;;;;;;;;;;5082026;28;20518;-60
2023/09/12 08:02:48;;;;;;;34.65;13.00;;;;;;;;;;5107168;28;20035;-60
2023/09/12 08:05:15;;;;;;;27.23;12.10;;;;;;;;;;5101021;28;20450;-60
2023/09/12 08:07:41;;;;;;;21.73;12.60;;;;;;;;;;5101552;28;20043;-60
2023/09/12 08:10:07;;;;;;;19.52;12.38;;;;;;;;;;5084325;28;20035;-59
2023/09/12 08:12:35;;;;;;;19.30;12.00;;;;;;;;;;5105371;28;20035;-60
2023/09/12 08:15:01;;;;;;;24.40;13.00;;;;;;;;;;5068748;28;20044;-59
2023/09/12 08:17:27;;;;;;;17.90;12.70;;;;;;;;;;5101032;28;20035;-60
2023/09/12 08:19:53;;;;;;;19.02;12.25;;;;;;;;;;5099547;28;20040;-59
2023/09/12 08:22:19;;;;;;;20.77;12.77;;;;;;;;;;5099812;28;20032;-59
2023/09/12 08:24:46;;;;;;;24.20;13.18;;;;;;;;;;5102027;28;20059;-59
2023/09/12 08:27:12;;;;;;;20.23;12.82;;;;;;;;;;5080584;28;20024;-60
2023/09/12 08:29:39;;;;;;;18.98;12.77;;;;;;;;;;5101543;28;20042;-60
2023/09/12 08:32:05;;;;;;;19.67;12.57;;;;;;;;;;5098529;28;20066;-60
2023/09/12 08:34:31;;;;;;;21.15;13.07;;;;;;;;;;5098889;28;20051;-59
2023/09/12 08:36:57;;;;;;;18.55;12.38;;;;;;;;;;5102681;28;20106;-59
2023/09/12 08:39:25;;;;;;;19.23;12.95;;;;;;;;;;5083490;28;20040;-59
2023/09/12 08:41:52;;;;;;;22.98;13.10;;;;;;;;;;5102718;28;20617;-59
2023/09/12 08:44:20;;;;;;;22.60;14.15;;;;;;;;;;5083496;28;20047;-59
2023/09/12 08:46:47;;;;;;;19.02;13.38;;;;;;;;;;5085380;28;20043;-59
2023/09/12 08:49:15;;;;;;;20.15;12.60;;;;;;;;;;5102582;28;20038;-60
2023/09/12 08:51:41;;;;;;;24.38;14.00;;;;;;;;;;5103644;28;20054;-60
2023/09/12 08:54:09;;;;;;;21.15;12.65;;;;;;;;;;5103969;28;20087;-60
2023/09/12 08:56:37;;;;;;;22.40;13.18;;;;;;;;;;5104479;28;20097;-59
2023/09/12 08:59:04;;;;;;;22.60;13.83;;;;;;;;;;5102608;28;20039;-59
2023/09/12 09:01:31;;;;;;;18.73;13.50;;;;;;;;;;5106526;28;20043;-60
2023/09/12 09:03:57;;;;;;;24.17;14.10;;;;;;;;;;5105937;28;20116;-60
2023/09/12 09:06:25;;;;;;;21.08;14.30;;;;;;;;;;5104815;28;20637;-59
2023/09/12 09:08:52;;;;;;;23.00;13.93;;;;;;;;;;5106016;28;20067;-59
2023/09/12 09:11:18;;;;;;;20.98;13.40;;;;;;;;;;5102339;28;20052;-59
2023/09/12 09:13:44;;;;;;;19.10;13.35;;;;;;;;;;5104701;28;20032;-60
2023/09/12 09:16:19;;;;;;;20.15;12.52;;;;;;;;;;5102125;28;20051;-59
2023/09/12 09:18:54;;;;;;;19.30;14.18;;;;;;;;;;5101337;28;20066;-60
2023/09/12 09:21:24;;;;;;;22.52;13.82;;;;;;;;;;5105228;28;20038;-60
2023/09/12 09:23:55;;;;;;;17.70;13.35;;;;;;;;;;5085502;28;20465;-60
2023/09/12 09:26:21;;;;;;;20.48;13.02;;;;;;;;;;5101508;28;20050;-60
2023/09/12 09:29:04;;;;;;;17.38;12.18;;;;;;;;;;5100376;28;20422;-59
2023/09/12 09:31:31;;;;;;;18.60;12.52;;;;;;;;;;5104548;28;20048;-60
2023/09/12 09:33:59;;;;;;;17.42;11.77;;;;;;;;;;5097079;28;20036;-60
2023/09/12 09:36:25;;;;;;;13.95;11.40;;;;;;;;;;5097349;28;20039;-60
2023/09/12 09:38:51;;;;;;;14.18;11.40;;;;;;;;;;5105018;28;20035;-61
2023/09/12 09:41:24;;;;;;;14.25;10.32;;;;;;;;;;5103653;28;20050;-61
2023/09/12 09:43:51;;;;;;;11.52;9.88;;;;;;;;;;5105332;28;20058;-61
2023/09/12 09:46:18;;;;;;;16.38;10.68;;;;;;;;;;5104825;28;20048;-61
2023/09/12 09:48:51;;;;;;;14.15;10.20;;;;;;;;;;5090864;28;20028;-61
2023/09/12 09:51:18;;;;;;;14.00;10.50;;;;;;;;;;5105096;28;20042;-61
2023/09/12 09:53:44;;;;;;;12.45;10.02;;;;;;;;;;5102362;28;20039;-61
2023/09/12 09:56:15;;;;;;;15.00;10.23;;;;;;;;;;5089394;28;20382;-61
2023/09/12 09:58:51;;;;;;;16.23;10.82;;;;;;;;;;5104013;28;20047;-61
2023/09/12 10:01:20;;;;;;;16.40;9.25;;;;;;;;;;5103819;28;20450;-61
2023/09/12 10:03:49;;;;;;;;;;;;;;;;;;5087686;28;20039;-61
2023/09/12 10:06:17;;;;;;;13.98;10.15;;;;;;;;;;5103995;28;19911;-61
2023/09/12 10:08:46;;;;;;;13.40;9.80;;;;;;;;;;5108383;28;20024;-61
2023/09/12 10:11:15;;;;;;;11.68;9.43;;;;;;;;;;5101676;28;20305;-61
2023/09/12 10:13:49;;;;;;;12.55;9.35;;;;;;;;;;5101886;28;20028;-61
2023/09/12 10:16:16;;;;;;;12.73;8.98;;;;;;;;;;5099420;28;20035;-61
2023/09/12 10:19:21;;;;;;;12.95;8.90;;;;;;;;;;5103976;28;20047;-61
2023/09/12 10:22:04;;;;;;;10.88;8.85;;;;;;;;;;5103517;28;20057;-61
2023/09/12 10:24:31;;;;;;;10.73;8.98;;;;;;;;;;5102434;28;20023;-61
2023/09/12 10:27:00;;;;;;;11.55;9.25;;;;;;;;;;5068422;28;20035;-61
2023/09/12 10:29:26;;;;;;;13.25;8.82;;;;;;;;;;5099672;28;20079;-61
2023/09/12 10:31:52;;;;;;;11.85;8.70;;;;;;;;;;5103947;28;20036;-62
2023/09/12 10:34:19;;;;;;;9.68;8.20;;;;;;;;;;5103384;28;20141;-61
2023/09/12 10:36:46;;;;;;;13.02;9.15;;;;;;;;;;5086234;28;20487;-61
2023/09/12 10:39:14;;;;;;;12.13;8.90;;;;;;;;;;5083831;28;20048;-61
2023/09/12 10:41:41;;;;;;;10.50;8.70;;;;;;;;;;5102955;28;20110;-61
2023/09/12 10:44:14;;;;;;;10.30;9.23;;;;;;;;;;5104337;28;20047;-61
2023/09/12 10:46:41;;;;;;;14.13;9.30;;;;;;;;;;5104547;28;20044;-61
2023/09/12 10:49:08;;;;;;;13.30;8.52;;;;;;;;;;5101562;28;20039;-62
2023/09/12 10:51:39;;;;;;;10.82;8.23;;;;;;;;;;5102812;28;20031;-61
2023/09/12 10:54:08;;;;;;;12.93;9.07;;;;;;;;;;5108237;28;20031;-59
2023/09/12 10:56:34;;;;;;;13.63;10.65;;;;;;;;;;5085708;28;20043;-59
2023/09/12 10:59:04;;;;;;;14.05;8.23;;;;;;;;;;5103282;28;20044;-59
2023/09/12 11:01:37;;;;;;;12.35;8.50;;;;;;;;;;5103390;28;20052;-60
2023/09/12 11:04:19;;;;;;;11.75;8.70;;;;;;;;;;5104241;28;20043;-60
2023/09/12 11:06:49;;;;;;;13.07;8.05;;;;;;;;;;5103407;28;20548;-60
2023/09/12 11:09:22;;;;;;;10.90;8.20;;;;;;;;;;5100561;28;20439;-60
2023/09/12 11:11:55;;;;;;;11.90;8.73;;;;;;;;;;5101018;28;20032;-60
2023/09/12 11:14:21;;;;;;;11.02;8.68;;;;;;;;;;5094464;28;20036;-60
2023/09/12 11:17:07;;;;;;;11.93;8.77;;;;;;;;;;5096343;28;20043;-59
2023/09/12 11:19:52;;;;;;;10.80;8.00;;;;;;;;;;5098465;28;20047;-59
2023/09/12 11:22:30;;;;;;;12.60;8.70;;;;;;;;;;5082835;28;20024;-60
2023/09/12 11:25:01;;;;;;;14.38;8.63;;;;;;;;;;5102299;28;20082;-60
2023/09/12 11:28:05;;;;;;;13.45;8.65;;;;;;;;;;5102401;28;20038;-60
2023/09/12 11:30:31;;;;;;;14.88;8.48;;;;;;;;;;5096021;28;20542;-60
2023/09/12 11:32:59;;;;;;;9.98;7.97;;;;;;;;;;5100018;28;20023;-60
2023/09/12 11:35:28;;;;;;;16.02;8.45;;;;;;;;;;5101916;28;20047;-60
2023/09/12 11:37:59;;;;;;;10.38;8.48;;;;;;;;;;5099915;28;20048;-59
2023/09/12 11:40:34;;;;;;;10.85;8.90;;;;;;;;;;5101157;28;20051;-59
2023/09/12 11:43:04;;;;;;;11.38;8.70;;;;;;;;;;5101718;28;20360;-59
2023/09/12 11:45:32;;;;;;;10.73;9.02;;;;;;;;;;5083871;28;20039;-59
2023/09/12 11:47:58;;;;;;;16.75;8.77;;;;;;;;;;5084933;28;20043;-59
2023/09/12 11:50:35;;;;;;;16.92;9.07;;;;;;;;;;5100556;28;20040;-60
2023/09/12 11:53:11;;;;;;;10.68;8.55;;;;;;;;;;5099201;28;20491;-59
2023/09/12 11:55:44;;;;;;;12.77;8.45;;;;;;;;;;5102248;28;20039;-59
2023/09/12 11:58:14;;;;;;;11.18;9.32;;;;;;;;;;5098746;28;20046;-59
2023/09/12 12:00:49;;;;;;;24.98;9.73;;;;;;;;;;5102583;28;20023;-62
2023/09/12 12:03:15;;;;;;;13.02;8.90;;;;;;;;;;5101168;28;20042;-62
2023/09/12 12:05:42;;;;;;;12.00;8.18;;;;;;;;;;5102547;28;20421;-62
2023/09/12 12:08:11;;;;;;;16.00;8.95;;;;;;;;;;5102076;28;20027;-62
2023/09/12 12:10:39;;;;;;;10.43;8.45;;;;;;;;;;5099749;28;20039;-62
2023/09/12 12:13:06;;;;;;;12.60;8.68;;;;;;;;;;5103178;28;20035;-62
2023/09/12 12:15:32;;;;;;;13.82;8.45;;;;;;;;;;5096544;28;20032;-62
2023/09/12 12:17:58;;;;;;;10.75;7.78;;;;;;;;;;5079354;28;20036;-63
2023/09/12 12:20:24;;;;;;;10.85;8.35;;;;;;;;;;5096653;28;20046;-62
2023/09/12 12:22:51;;;;;;;11.35;8.20;;;;;;;;;;5096584;28;20043;-61
2023/09/12 12:25:17;;;;;;;10.13;8.65;;;;;;;;;;5100219;28;20040;-61
2023/09/12 12:27:44;;;;;;;9.50;7.88;;;;;;;;;;5095479;28;20054;-62
2023/09/12 12:30:13;;;;;;;9.25;8.25;;;;;;;;;;5096204;28;20035;-61
2023/09/12 12:32:42;;;;;;;10.60;8.20;;;;;;;;;;5102618;28;20513;-62
2023/09/12 12:35:19;;;;;;;11.65;8.60;;;;;;;;;;5099284;28;20039;-62
2023/09/12 12:37:47;;;;;;;11.85;7.95;;;;;;;;;;5099949;28;20027;-62
2023/09/12 12:40:13;;;;;;;13.05;8.95;;;;;;;;;;5103811;28;20398;-62
2023/09/12 12:42:44;;;;;;;9.93;8.00;;;;;;;;;;5102626;28;20591;-61
2023/09/12 12:45:14;;;;;;;10.48;8.02;;;;;;;;;;5098562;28;20044;-62
2023/09/12 12:47:41;;;;;;;13.80;8.30;;;;;;;;;;5101341;28;20051;-62
2023/09/12 12:50:20;;;;;;;11.90;8.48;;;;;;;;;;5105525;28;20494;-61
2023/09/12 12:52:48;;;;;;;11.88;8.48;;;;;;;;;;5103163;28;20403;-61
2023/09/12 12:55:16;;;;;;;10.35;9.07;;;;;;;;;;5103524;28;20058;-62
2023/09/12 12:57:44;;;;;;;10.60;8.15;;;;;;;;;;5086721;28;20375;-62
2023/09/12 13:00:13;;;;;;;13.57;8.35;;;;;;;;;;5104031;28;20414;-62
2023/09/12 13:02:40;;;;;;;10.80;8.27;;;;;;;;;;5083765;28;24207;-62
2023/09/12 13:05:29;;;;;;;11.90;8.15;;;;;;;;;;5105585;28;20028;-62
2023/09/12 13:07:55;;;;;;;13.10;7.60;;;;;;;;;;5097533;28;20051;-62
2023/09/12 13:10:22;;;;;;;9.88;8.10;;;;;;;;;;5095272;28;20032;-62
2023/09/12 13:12:49;;;;;;;9.53;7.87;;;;;;;;;;5098625;28;20545;-62
2023/09/12 13:15:19;;;;;;;10.63;8.63;;;;;;;;;;5094971;28;20040;-62
2023/09/12 13:17:45;;;;;;;8.63;7.65;;;;;;;;;;5099616;28;20050;-63
2023/09/12 13:20:11;;;;;;;10.07;8.00;;;;;;;;;;5097646;28;20070;-62
2023/09/12 13:22:38;;;;;;;9.68;7.95;;;;;;;;;;5095780;28;20023;-62
2023/09/12 13:25:05;;;;;;;12.93;8.48;;;;;;;;;;5104489;28;20054;-63
2023/09/12 13:27:31;;;;;;;9.65;8.25;;;;;;;;;;5102686;28;20411;-62
2023/09/12 13:29:57;;;;;;;10.23;7.63;;;;;;;;;;5097374;28;20040;-63
2023/09/12 13:32:23;;;;;;;10.50;8.00;;;;;;;;;;5080128;28;20494;-62
2023/09/12 13:34:50;;;;;;;9.43;8.10;;;;;;;;;;5099063;28;20563;-63
2023/09/12 13:37:16;;;;;;;11.48;8.30;;;;;;;;;;5081949;28;20055;-63
2023/09/12 13:39:49;;;;;;;9.57;7.25;;;;;;;;;;5100995;28;20046;-63
2023/09/12 13:42:19;;;;;;;10.95;8.18;;;;;;;;;;5100045;28;20427;-63
2023/09/12 13:44:46;;;;;;;10.88;8.27;;;;;;;;;;5104404;28;20051;-63
2023/09/12 13:47:13;;;;;;;13.47;7.83;;;;;;;;;;5108272;28;20084;-63
2023/09/12 13:49:39;;;;;;;9.50;8.05;;;;;;;;;;5105297;28;20308;-62
2023/09/12 13:52:05;;;;;;;12.07;8.25;;;;;;;;;;5087707;28;20420;-63
2023/09/12 13:54:31;;;;;;;9.45;7.80;;;;;;;;;;5101242;28;20028;-62
2023/09/12 13:56:58;;;;;;;8.75;7.78;;;;;;;;;;5106210;28;20039;-62
2023/09/12 13:59:24;;;;;;;9.88;8.65;;;;;;;;;;5103167;28;20380;-63
2023/09/12 14:01:50;;;;;;;13.30;8.20;;;;;;;;;;5103936;28;20035;-62
2023/09/12 14:04:17;;;;;;;10.98;8.38;;;;;;;;;;5106790;28;20043;-62
2023/09/12 14:06:43;;;;;;;11.43;8.27;;;;;;;;;;5100642;28;20043;-62
2023/09/12 14:09:09;;;;;;;12.02;8.30;;;;;;;;;;5103124;27;20043;-62
2023/09/12 14:11:35;;;;;;;9.57;8.18;;;;;;;;;;5084131;28;20032;-62
2023/09/12 14:14:03;;;;;;;11.57;8.70;;;;;;;;;;5103118;28;20041;-61
2023/09/12 14:16:30;;;;;;;11.68;8.73;;;;;;;;;;5104006;28;20042;-61
2023/09/12 14:18:56;;;;;;;11.40;8.68;;;;;;;;;;5102269;28;20044;-59
2023/09/12 14:21:22;;;;;;;9.88;8.77;;;;;;;;;;5098750;28;20498;-61
2023/09/12 14:23:49;;;;;;;10.50;8.80;;;;;;;;;;5103729;28;20529;-60
2023/09/12 14:26:15;;;;;;;9.38;8.38;;;;;;;;;;5105294;28;20047;-60
2023/09/12 14:28:41;;;;;;;16.45;8.88;;;;;;;;;;5086172;28;20055;-61
2023/09/12 14:31:13;;;;;;;12.73;9.45;;;;;;;;;;5105460;28;20519;-61